createdAt,value
2019-05-10T00:00:10.722Z,46.17
2019-05-10T00:01:10.706Z,46.69
2019-05-10T00:02:10.711Z,46.89
2019-05-10T00:03:10.693Z,46.38
2019-05-10T00:04:10.689Z,47.09
2019-05-10T00:05:10.709Z,46.38
2019-05-10T00:06:10.654Z,47.61
2019-05-10T00:07:10.631Z,47.71
2019-05-10T00:08:10.733Z,47.61
2019-05-10T00:09:10.624Z,47.51
2019-05-10T00:10:10.606Z,47.81
2019-05-10T00:11:10.600Z,48.22
2019-05-10T00:12:17.568Z,47.51
2019-05-10T00:13:10.567Z,47.71
2019-05-10T00:14:10.584Z,48.22
2019-05-10T00:15:10.551Z,47.71
2019-05-10T00:16:10.544Z,47.51
2019-05-10T00:17:10.578Z,47.71
2019-05-10T00:18:10.528Z,48.43
2019-05-10T00:19:10.522Z,48.74
2019-05-10T00:20:10.517Z,48.84
2019-05-10T00:21:10.565Z,47.81
2019-05-10T00:22:10.479Z,48.84
2019-05-10T00:23:10.460Z,49.26
2019-05-10T00:24:10.456Z,49.46
2019-05-10T00:25:10.494Z,48.84
2019-05-10T00:26:10.466Z,49.05
2019-05-10T00:27:10.495Z,48.84
2019-05-10T00:28:10.421Z,49.46
2019-05-10T00:29:10.451Z,49.87
2019-05-10T00:30:10.387Z,49.87
2019-05-10T00:31:10.425Z,49.66
2019-05-10T00:32:10.410Z,50.07
2019-05-10T00:33:10.371Z,50.07
2019-05-10T00:34:10.345Z,49.97
2019-05-10T00:35:10.339Z,50.18
2019-05-10T00:36:10.335Z,50.38
2019-05-10T00:37:10.323Z,50.18
2019-05-10T00:38:10.346Z,50.07
2019-05-10T00:39:10.303Z,49.77
2019-05-10T00:40:10.292Z,50.18
2019-05-10T00:41:10.276Z,49.77
2019-05-10T00:42:10.360Z,49.77
2019-05-10T00:43:10.261Z,49.66
2019-05-10T00:44:17.222Z,50.07
2019-05-10T00:45:10.226Z,50.07
2019-05-10T00:46:10.216Z,50.18
2019-05-10T00:47:10.209Z,50.30
2019-05-10T00:48:10.215Z,49.56
2019-05-10T00:49:10.204Z,50.90
2019-05-10T00:50:10.183Z,50.48
2019-05-10T00:51:10.213Z,51.10
2019-05-10T00:52:10.151Z,50.07
2019-05-10T00:53:10.167Z,50.59
2019-05-10T00:54:10.132Z,50.99
2019-05-10T00:55:18.535Z,51.51
2019-05-10T00:56:11.114Z,51.74
2019-05-10T00:57:10.104Z,51.02
2019-05-10T00:58:10.098Z,51.43
2019-05-10T00:59:10.125Z,51.02
2019-05-10T01:00:10.121Z,51.84
2019-05-10T01:01:10.060Z,51.64
2019-05-10T01:02:10.046Z,51.53
2019-05-10T01:03:10.049Z,51.74
2019-05-10T01:04:10.037Z,51.95
2019-05-10T01:05:10.038Z,51.53
2019-05-10T01:06:10.044Z,52.25
2019-05-10T01:07:09.995Z,51.64
2019-05-10T01:08:09.990Z,52.04
2019-05-10T01:09:09.975Z,51.53
2019-05-10T01:10:09.982Z,51.95
2019-05-10T01:11:09.953Z,52.25
2019-05-10T01:12:09.972Z,52.38
2019-05-10T01:13:09.937Z,52.69
2019-05-10T01:14:09.939Z,52.87
2019-05-10T01:15:09.951Z,52.79
2019-05-10T01:16:16.881Z,53.20
2019-05-10T01:17:09.881Z,52.66
2019-05-10T01:18:09.870Z,54.10
2019-05-10T01:19:09.863Z,53.69
2019-05-10T01:20:09.865Z,53.38
2019-05-10T01:21:10.198Z,53.38
2019-05-10T01:22:09.843Z,53.38
2019-05-10T01:23:09.824Z,53.72
2019-05-10T01:24:09.819Z,54.30
2019-05-10T01:25:09.815Z,54.30
2019-05-10T01:26:09.795Z,54.61
2019-05-10T01:27:09.818Z,54.53
2019-05-10T01:28:09.792Z,54.95
2019-05-10T01:29:09.756Z,55.23
2019-05-10T01:30:09.771Z,54.51
2019-05-10T01:31:09.745Z,56.05
2019-05-10T01:32:09.738Z,56.38
2019-05-10T01:33:09.772Z,56.28
2019-05-10T01:34:09.701Z,56.70
2019-05-10T01:35:09.690Z,56.59
2019-05-10T01:36:09.692Z,57.72
2019-05-10T01:37:09.687Z,58.34
2019-05-10T01:38:09.708Z,58.64
2019-05-10T01:39:09.656Z,59.57
2019-05-10T01:40:09.698Z,60.08
2019-05-10T01:41:09.638Z,60.80
2019-05-10T01:42:09.619Z,61.42
2019-05-10T01:43:09.610Z,62.24
2019-05-10T01:44:09.611Z,62.24
2019-05-10T01:45:09.584Z,63.37
2019-05-10T01:46:09.585Z,63.89
2019-05-10T01:47:09.570Z,65.83
2019-05-10T01:48:18.173Z,65.86
2019-05-10T01:49:09.610Z,66.17
2019-05-10T01:50:09.528Z,66.58
2019-05-10T01:51:09.520Z,67.10
2019-05-10T01:52:09.508Z,67.30
2019-05-10T01:53:09.511Z,67.20
2019-05-10T01:54:09.489Z,67.71
2019-05-10T01:55:09.487Z,69.15
2019-05-10T01:56:09.469Z,69.36
2019-05-10T01:57:09.457Z,69.77
2019-05-10T01:58:09.466Z,70.83
2019-05-10T01:59:09.433Z,71.62
2019-05-10T02:00:09.470Z,71.96
2019-05-10T02:01:09.452Z,73.30
2019-05-10T02:02:09.403Z,73.09
2019-05-10T02:03:09.393Z,72.99
2019-05-10T02:04:09.381Z,73.19
2019-05-10T02:05:09.377Z,74.33
2019-05-10T02:06:09.446Z,74.53
2019-05-10T02:07:09.372Z,74.95
2019-05-10T02:08:09.347Z,75.15
2019-05-10T02:09:09.342Z,75.04
2019-05-10T02:10:09.337Z,75.29
2019-05-10T02:11:09.324Z,74.98
2019-05-10T02:12:09.304Z,75.39
2019-05-10T02:13:09.365Z,75.04
2019-05-10T02:14:09.283Z,75.49
2019-05-10T02:15:09.270Z,75.15
2019-05-10T02:16:09.299Z,75.25
2019-05-10T02:17:09.239Z,75.70
2019-05-10T02:18:09.243Z,75.39
2019-05-10T02:19:09.268Z,75.29
2019-05-10T02:20:16.723Z,75.29
2019-05-10T02:21:09.226Z,75.39
2019-05-10T02:22:09.199Z,75.59
2019-05-10T02:23:09.211Z,76.28
2019-05-10T02:24:09.170Z,77.03
2019-05-10T02:25:09.164Z,77.20
2019-05-10T02:26:10.069Z,77.10
2019-05-10T02:27:09.153Z,77.45
2019-05-10T02:28:09.128Z,77.51
2019-05-10T02:29:09.167Z,78.37
2019-05-10T02:30:09.145Z,77.86
2019-05-10T02:31:09.098Z,78.27
2019-05-10T02:32:09.160Z,77.14
2019-05-10T02:33:09.113Z,78.37
2019-05-10T02:34:09.075Z,78.17
2019-05-10T02:35:09.070Z,77.86
2019-05-10T02:36:09.043Z,78.89
2019-05-10T02:37:09.032Z,78.13
2019-05-10T02:38:09.079Z,79.09
2019-05-10T02:39:09.020Z,77.55
2019-05-10T02:40:09.014Z,79.30
2019-05-10T02:41:08.992Z,78.33
2019-05-10T02:42:08.977Z,78.13
2019-05-10T02:43:09.049Z,78.75
2019-05-10T02:44:08.955Z,77.62
2019-05-10T02:45:08.954Z,77.82
2019-05-10T02:46:08.941Z,77.31
2019-05-10T02:47:08.927Z,77.82
2019-05-10T02:48:09.018Z,78.54
2019-05-10T02:49:08.915Z,77.72
2019-05-10T02:50:08.889Z,77.20
2019-05-10T02:51:08.886Z,78.13
2019-05-10T02:52:15.851Z,76.79
2019-05-10T02:53:08.858Z,77.51
2019-05-10T02:54:08.859Z,77.10
2019-05-10T02:55:08.838Z,77.31
2019-05-10T02:56:27.847Z,77.41
2019-05-10T02:57:09.822Z,77.00
2019-05-10T02:58:08.803Z,77.20
2019-05-10T02:59:08.922Z,77.82
2019-05-10T03:00:08.789Z,76.97
2019-05-10T03:01:08.771Z,77.06
2019-05-10T03:02:08.790Z,77.37
2019-05-10T03:03:08.751Z,77.58
2019-05-10T03:04:08.751Z,76.76
2019-05-10T03:05:08.746Z,77.58
2019-05-10T03:06:08.730Z,77.68
2019-05-10T03:07:08.766Z,77.58
2019-05-10T03:08:08.702Z,77.27
2019-05-10T03:09:08.715Z,77.48
2019-05-10T03:10:08.688Z,77.17
2019-05-10T03:11:08.696Z,77.75
2019-05-10T03:12:08.666Z,77.17
2019-05-10T03:13:08.642Z,77.58
2019-05-10T03:14:08.691Z,77.68
2019-05-10T03:15:08.638Z,77.75
2019-05-10T03:16:08.620Z,78.20
2019-05-10T03:17:08.622Z,77.58
2019-05-10T03:18:08.603Z,77.55
2019-05-10T03:19:08.578Z,77.65
2019-05-10T03:20:08.598Z,77.55
2019-05-10T03:21:08.635Z,78.16
2019-05-10T03:22:08.547Z,78.57
2019-05-10T03:23:08.539Z,78.47
2019-05-10T03:24:16.724Z,78.06
2019-05-10T03:25:08.517Z,77.95
2019-05-10T03:26:08.542Z,78.06
2019-05-10T03:27:08.498Z,77.65
2019-05-10T03:28:08.486Z,78.16
2019-05-10T03:29:08.484Z,78.36
2019-05-10T03:30:08.547Z,78.47
2019-05-10T03:31:08.497Z,78.27
2019-05-10T03:32:08.455Z,78.06
2019-05-10T03:33:08.449Z,78.36
2019-05-10T03:34:08.481Z,77.95
2019-05-10T03:35:08.422Z,78.16
2019-05-10T03:36:08.399Z,78.23
2019-05-10T03:37:08.461Z,78.53
2019-05-10T03:38:08.385Z,78.36
2019-05-10T03:39:08.367Z,77.81
2019-05-10T03:40:08.390Z,77.81
2019-05-10T03:41:08.359Z,78.23
2019-05-10T03:42:08.347Z,78.02
2019-05-10T03:43:08.429Z,78.33
2019-05-10T03:44:08.317Z,78.02
2019-05-10T03:45:08.307Z,78.33
2019-05-10T03:46:08.295Z,78.64
2019-05-10T03:47:08.282Z,78.23
2019-05-10T03:48:08.273Z,78.02
2019-05-10T03:49:08.374Z,78.33
2019-05-10T03:50:08.265Z,78.09
2019-05-10T03:51:08.302Z,78.12
2019-05-10T03:52:08.232Z,78.23
2019-05-10T03:53:08.235Z,77.81
2019-05-10T03:54:08.288Z,77.40
2019-05-10T03:55:08.189Z,78.02
2019-05-10T03:56:15.170Z,78.53
2019-05-10T03:57:13.954Z,77.71
2019-05-10T03:58:09.231Z,78.53
2019-05-10T03:59:08.170Z,78.12
2019-05-10T04:00:08.143Z,78.23
2019-05-10T04:01:08.130Z,78.02
2019-05-10T04:02:08.130Z,77.81
2019-05-10T04:03:08.120Z,78.12
2019-05-10T04:04:09.637Z,78.53
2019-05-10T04:05:08.126Z,78.64
2019-05-10T04:06:08.078Z,78.64
2019-05-10T04:07:08.069Z,78.33
2019-05-10T04:08:08.124Z,78.33
2019-05-10T04:09:08.049Z,78.53
2019-05-10T04:10:08.042Z,78.02
2019-05-10T04:11:08.109Z,77.92
2019-05-10T04:12:08.020Z,77.71
2019-05-10T04:13:08.002Z,78.43
2019-05-10T04:14:08.000Z,78.23
2019-05-10T04:15:07.984Z,78.02
2019-05-10T04:16:07.997Z,77.81
2019-05-10T04:17:08.008Z,78.64
2019-05-10T04:18:07.950Z,78.02
2019-05-10T04:19:07.949Z,78.02
2019-05-10T04:20:07.943Z,77.61
2019-05-10T04:21:07.955Z,78.12
2019-05-10T04:22:07.905Z,78.12
2019-05-10T04:23:07.956Z,77.51
2019-05-10T04:24:07.884Z,77.61
2019-05-10T04:25:07.889Z,78.12
2019-05-10T04:26:07.860Z,77.81
2019-05-10T04:27:07.872Z,77.92
2019-05-10T04:28:14.816Z,77.92
2019-05-10T04:29:07.822Z,78.33
2019-05-10T04:30:07.819Z,78.23
2019-05-10T04:31:07.808Z,77.51
2019-05-10T04:32:07.810Z,77.20
2019-05-10T04:33:07.793Z,76.89
2019-05-10T04:34:07.785Z,77.40
2019-05-10T04:35:07.766Z,76.89
2019-05-10T04:36:12.310Z,76.96
2019-05-10T04:37:08.736Z,76.96
2019-05-10T04:38:07.733Z,76.65
2019-05-10T04:39:07.765Z,77.06
2019-05-10T04:40:07.714Z,76.65
2019-05-10T04:41:07.710Z,76.65
2019-05-10T04:42:07.693Z,76.86
2019-05-10T04:43:07.685Z,76.14
2019-05-10T04:44:07.664Z,76.24
2019-05-10T04:45:07.679Z,76.45
2019-05-10T04:46:07.644Z,75.62
2019-05-10T04:47:07.630Z,75.83
2019-05-10T04:48:07.627Z,75.73
2019-05-10T04:49:07.636Z,75.83
2019-05-10T04:50:07.608Z,75.42
2019-05-10T04:51:07.614Z,75.52
2019-05-10T04:52:07.579Z,75.83
2019-05-10T04:53:07.572Z,75.32
2019-05-10T04:54:07.566Z,75.01
2019-05-10T04:55:07.668Z,75.15
2019-05-10T04:56:07.593Z,75.11
2019-05-10T04:57:07.540Z,75.21
2019-05-10T04:58:07.523Z,75.21
2019-05-10T04:59:07.637Z,75.62
2019-05-10T05:00:14.476Z,75.11
2019-05-10T05:01:07.487Z,74.84
2019-05-10T05:02:07.486Z,74.91
2019-05-10T05:03:07.482Z,75.32
2019-05-10T05:04:07.447Z,75.01
2019-05-10T05:05:07.456Z,75.01
2019-05-10T05:06:07.450Z,75.01
2019-05-10T05:07:07.439Z,75.21
2019-05-10T05:08:07.408Z,74.91
2019-05-10T05:09:07.402Z,74.84
2019-05-10T05:10:07.429Z,75.25
2019-05-10T05:11:07.404Z,75.25
2019-05-10T05:12:07.412Z,75.25
2019-05-10T05:13:07.382Z,75.32
2019-05-10T05:14:09.510Z,75.11
2019-05-10T05:15:07.382Z,75.01
2019-05-10T05:16:07.354Z,75.52
2019-05-10T05:17:07.320Z,74.91
2019-05-10T05:18:07.349Z,74.91
2019-05-10T05:19:07.293Z,74.87
2019-05-10T05:20:07.327Z,75.08
2019-05-10T05:21:07.273Z,74.98
2019-05-10T05:22:07.277Z,74.98
2019-05-10T05:23:07.290Z,75.08
2019-05-10T05:24:07.295Z,75.08
2019-05-10T05:25:07.233Z,74.98
2019-05-10T05:26:07.221Z,75.18
2019-05-10T05:27:07.297Z,74.66
2019-05-10T05:28:08.569Z,74.98
2019-05-10T05:29:07.191Z,74.91
2019-05-10T05:30:07.229Z,75.01
2019-05-10T05:31:07.164Z,74.98
2019-05-10T05:32:14.180Z,75.08
2019-05-10T05:33:07.135Z,75.18
2019-05-10T05:34:07.139Z,74.87
2019-05-10T05:35:07.117Z,75.08
2019-05-10T05:36:07.177Z,74.91
2019-05-10T05:37:07.096Z,75.01
2019-05-10T05:38:07.088Z,75.11
2019-05-10T05:39:07.084Z,74.80
2019-05-10T05:40:07.085Z,75.18
2019-05-10T05:41:07.065Z,74.77
2019-05-10T05:42:07.058Z,74.66
2019-05-10T05:43:08.293Z,74.87
2019-05-10T05:44:07.019Z,75.18
2019-05-10T05:45:07.017Z,74.87
2019-05-10T05:46:07.053Z,75.01
2019-05-10T05:47:06.995Z,74.98
2019-05-10T05:48:07.036Z,74.87
2019-05-10T05:49:06.979Z,74.26
2019-05-10T05:50:06.956Z,74.98
2019-05-10T05:51:06.958Z,74.87
2019-05-10T05:52:07.028Z,74.98
2019-05-10T05:53:06.934Z,74.73
2019-05-10T05:54:06.995Z,75.04
2019-05-10T05:55:06.905Z,74.46
2019-05-10T05:56:12.610Z,74.46
2019-05-10T05:57:07.980Z,74.94
2019-05-10T05:58:08.651Z,74.94
2019-05-10T05:59:08.963Z,74.77
2019-05-10T06:00:06.975Z,74.46
2019-05-10T06:01:06.869Z,74.36
2019-05-10T06:02:07.785Z,74.32
2019-05-10T06:03:06.952Z,74.94
2019-05-10T06:04:14.310Z,74.53
2019-05-10T06:05:06.797Z,73.81
2019-05-10T06:06:15.636Z,73.50
2019-05-10T06:07:07.788Z,74.12
2019-05-10T06:08:21.566Z,74.73
2019-05-10T06:09:07.790Z,75.24
2019-05-10T06:10:10.413Z,75.15
2019-05-10T06:11:09.187Z,74.12
2019-05-10T06:12:07.596Z,74.32
2019-05-10T06:13:07.726Z,74.32
2019-05-10T06:14:10.794Z,74.63
2019-05-10T06:15:07.700Z,75.15
2019-05-10T06:16:12.685Z,74.63
2019-05-10T06:17:07.674Z,75.15
2019-05-10T06:18:09.741Z,75.24
2019-05-10T06:19:07.657Z,74.32
2019-05-10T06:20:07.621Z,74.73
2019-05-10T06:21:06.721Z,74.94
2019-05-10T06:22:06.928Z,74.73
2019-05-10T06:23:07.230Z,75.04
2019-05-10T06:24:07.485Z,74.70
2019-05-10T06:25:07.613Z,75.11
2019-05-10T06:26:06.828Z,75.11
2019-05-10T06:27:06.618Z,74.84
2019-05-10T06:28:24.120Z,75.11
2019-05-10T06:29:16.255Z,74.80
2019-05-10T06:30:07.580Z,75.11
2019-05-10T06:31:06.531Z,75.31
2019-05-10T06:32:06.543Z,75.01
2019-05-10T06:33:12.650Z,74.80
2019-05-10T06:34:07.554Z,74.90
2019-05-10T06:35:06.479Z,75.01
2019-05-10T06:36:13.918Z,75.35
2019-05-10T06:37:06.481Z,75.82
2019-05-10T06:38:06.495Z,75.21
2019-05-10T06:39:06.441Z,74.90
2019-05-10T06:40:06.428Z,75.42
2019-05-10T06:41:10.265Z,76.78
2019-05-10T06:42:07.429Z,75.93
2019-05-10T06:43:07.051Z,76.58
2019-05-10T06:44:07.376Z,75.35
2019-05-10T06:45:14.385Z,76.75
2019-05-10T06:46:07.354Z,75.52
2019-05-10T06:47:08.188Z,75.82
2019-05-10T06:48:06.579Z,76.54
2019-05-10T06:49:08.465Z,75.73
2019-05-10T06:50:06.379Z,75.01
2019-05-10T06:51:09.319Z,76.44
2019-05-10T06:52:07.296Z,76.24
2019-05-10T06:53:10.765Z,77.16
2019-05-10T06:54:07.311Z,76.89
2019-05-10T06:55:06.284Z,77.57
2019-05-10T06:56:06.255Z,76.54
2019-05-10T06:57:11.078Z,77.16
2019-05-10T06:58:07.294Z,76.95
2019-05-10T06:59:13.447Z,76.85
2019-05-10T07:00:08.072Z,78.80
2019-05-10T07:01:06.202Z,78.42
2019-05-10T07:02:06.181Z,78.19
2019-05-10T07:03:06.243Z,78.02
2019-05-10T07:04:06.213Z,78.42
2019-05-10T07:05:06.158Z,79.41
2019-05-10T07:06:06.147Z,77.98
2019-05-10T07:07:10.290Z,79.11
2019-05-10T07:09:16.563Z,78.90
2019-05-10T07:10:19.368Z,77.94
2019-05-10T07:11:16.907Z,78.35
2019-05-10T07:12:18.358Z,78.35
2019-05-10T07:13:15.862Z,77.80
2019-05-10T07:14:15.836Z,78.63
2019-05-10T07:15:15.884Z,77.80
2019-05-10T07:16:24.055Z,76.98
2019-05-10T07:17:16.802Z,77.70
2019-05-10T07:18:16.691Z,77.80
2019-05-10T07:19:16.779Z,77.29
2019-05-10T07:20:15.766Z,78.01
2019-05-10T07:21:15.804Z,77.39
2019-05-10T07:23:16.760Z,76.98
2019-05-10T07:24:18.502Z,77.80
2019-05-10T07:25:17.106Z,77.56
2019-05-10T07:26:17.529Z,77.87
2019-05-10T07:27:16.700Z,77.36
2019-05-10T07:28:17.647Z,77.26
2019-05-10T07:29:29.075Z,76.23
2019-05-10T07:30:16.658Z,77.46
2019-05-10T07:31:15.701Z,76.50
2019-05-10T07:32:16.439Z,76.81
2019-05-10T07:33:16.639Z,75.59
2019-05-10T07:34:17.592Z,76.61
2019-05-10T07:35:15.615Z,76.91
2019-05-10T07:36:20.485Z,76.61
2019-05-10T07:37:16.642Z,76.40
2019-05-10T07:38:15.600Z,76.30
2019-05-10T07:39:15.569Z,75.48
2019-05-10T07:40:22.543Z,74.97
2019-05-10T07:41:19.483Z,75.38
2019-05-10T07:42:16.551Z,74.90
2019-05-10T07:43:24.784Z,75.42
2019-05-10T07:44:16.513Z,75.31
2019-05-10T07:45:18.621Z,76.54
2019-05-10T07:46:16.494Z,76.43
2019-05-10T07:47:15.524Z,75.48
2019-05-10T07:48:15.484Z,75.68
2019-05-10T07:49:15.469Z,75.82
2019-05-10T07:50:15.487Z,75.31
2019-05-10T07:51:15.434Z,76.34
2019-05-10T07:52:15.433Z,76.43
2019-05-10T07:53:16.197Z,76.57
2019-05-10T07:54:16.411Z,76.57
2019-05-10T07:55:18.594Z,76.88
2019-05-10T07:56:16.381Z,76.64
2019-05-10T07:57:18.468Z,75.79
2019-05-10T07:58:16.413Z,74.93
2019-05-10T07:59:16.454Z,74.63
2019-05-10T08:00:16.357Z,75.34
2019-05-10T08:01:15.328Z,74.93
2019-05-10T08:02:15.314Z,74.93
2019-05-10T08:03:18.784Z,74.93
2019-05-10T08:04:19.737Z,76.57
2019-05-10T08:05:18.303Z,76.57
2019-05-10T08:06:15.689Z,75.55
2019-05-10T08:07:15.268Z,75.51
2019-05-10T08:08:15.254Z,74.69
2019-05-10T08:09:15.240Z,74.63
2019-05-10T08:10:15.268Z,74.93
2019-05-10T08:11:15.236Z,75.14
2019-05-10T08:12:22.193Z,75.45
2019-05-10T08:13:20.032Z,75.34
2019-05-10T08:14:16.187Z,75.24
2019-05-10T08:15:15.180Z,74.93
2019-05-10T08:16:21.922Z,75.24
2019-05-10T08:17:16.156Z,75.34
2019-05-10T08:18:19.969Z,76.47
2019-05-10T08:19:16.167Z,75.71
2019-05-10T08:20:29.729Z,75.31
2019-05-10T08:21:23.790Z,74.80
2019-05-10T08:22:16.201Z,75.41
2019-05-10T08:23:17.976Z,75.07
2019-05-10T08:24:16.790Z,76.70
2019-05-10T08:25:15.448Z,76.29
2019-05-10T08:26:20.237Z,75.58
2019-05-10T08:27:16.176Z,75.07
2019-05-10T08:28:15.040Z,75.85
2019-05-10T08:29:16.854Z,75.17
2019-05-10T08:30:25.421Z,74.66
2019-05-10T08:31:16.077Z,74.32
2019-05-10T08:32:19.373Z,74.63
2019-05-10T08:33:15.994Z,74.08
2019-05-10T08:34:14.978Z,74.08
2019-05-10T08:35:17.101Z,74.52
2019-05-10T08:36:15.011Z,74.42
2019-05-10T08:37:19.336Z,74.63
2019-05-10T08:38:15.922Z,74.87
2019-05-10T08:39:14.916Z,74.87
2019-05-10T08:40:19.788Z,75.17
2019-05-10T08:41:18.382Z,74.76
2019-05-10T08:42:34.744Z,75.07
2019-05-10T08:43:16.993Z,74.87
2019-05-10T08:44:23.995Z,76.50
2019-05-10T08:45:14.848Z,76.19
2019-05-10T08:46:19.474Z,75.75
2019-05-10T08:47:24.191Z,75.27
2019-05-10T08:48:15.817Z,74.73
2019-05-10T08:49:14.854Z,74.79
2019-05-10T08:50:28.755Z,74.49
2019-05-10T08:51:15.797Z,74.01
2019-05-10T08:52:19.233Z,73.88
2019-05-10T08:53:16.634Z,73.54
2019-05-10T08:54:14.754Z,72.41
2019-05-10T08:55:14.784Z,72.92
2019-05-10T08:56:20.989Z,73.03
2019-05-10T08:57:18.556Z,74.76
2019-05-10T08:58:14.706Z,74.66
2019-05-10T08:59:21.136Z,74.35
2019-05-10T09:00:15.776Z,74.35
2019-05-10T09:01:26.151Z,73.03
2019-05-10T09:02:20.187Z,72.79
2019-05-10T09:03:18.565Z,72.75
2019-05-10T09:04:14.654Z,72.75
2019-05-10T09:05:14.683Z,72.04
2019-05-10T09:06:16.775Z,72.86
2019-05-10T09:07:14.611Z,73.91
2019-05-10T09:08:20.373Z,73.40
2019-05-10T09:09:15.638Z,74.11
2019-05-10T09:10:14.584Z,72.89
2019-05-10T09:11:16.416Z,72.48
2019-05-10T09:12:14.561Z,72.89
2019-05-10T09:13:14.551Z,73.43
2019-05-10T09:14:20.264Z,74.35
2019-05-10T09:15:15.535Z,74.05
2019-05-10T09:16:23.669Z,74.15
2019-05-10T09:17:22.649Z,74.15
2019-05-10T09:18:15.487Z,74.62
2019-05-10T09:19:18.868Z,74.62
2019-05-10T09:20:20.801Z,72.99
2019-05-10T09:21:15.518Z,72.86
2019-05-10T09:22:14.460Z,72.21
2019-05-10T09:23:19.917Z,72.31
2019-05-10T09:24:15.446Z,73.16
2019-05-10T09:25:14.416Z,72.41
2019-05-10T09:26:16.371Z,73.97
2019-05-10T09:27:14.399Z,74.28
2019-05-10T09:28:16.836Z,73.23
2019-05-10T09:29:14.392Z,72.82
2019-05-10T09:30:18.438Z,72.62
2019-05-10T09:31:21.813Z,72.31
2019-05-10T09:32:15.360Z,71.70
2019-05-10T09:33:14.775Z,71.60
2019-05-10T09:34:14.392Z,71.87
2019-05-10T09:35:14.307Z,71.47
2019-05-10T09:36:14.297Z,72.28
2019-05-10T09:37:17.518Z,71.60
2019-05-10T09:38:14.297Z,72.92
2019-05-10T09:39:19.584Z,72.72
2019-05-10T09:40:15.299Z,74.08
2019-05-10T09:41:14.244Z,74.55
2019-05-10T09:42:24.963Z,74.08
2019-05-10T09:43:15.229Z,73.97
2019-05-10T09:44:14.212Z,74.28
2019-05-10T09:45:14.205Z,74.73
2019-05-10T09:46:14.324Z,75.03
2019-05-10T09:47:14.179Z,75.34
2019-05-10T09:48:22.970Z,76.29
2019-05-10T09:49:18.242Z,76.39
2019-05-10T09:50:14.172Z,76.09
2019-05-10T09:51:18.970Z,75.34
2019-05-10T09:52:18.693Z,74.93
2019-05-10T09:53:21.703Z,74.32
2019-05-10T09:54:15.114Z,74.62
2019-05-10T09:55:15.028Z,74.79
2019-05-10T09:56:14.132Z,74.49
2019-05-10T09:57:14.068Z,74.99
2019-05-10T09:58:14.058Z,73.97
2019-05-10T09:59:14.129Z,73.33
2019-05-10T10:00:14.044Z,74.04
2019-05-10T10:01:20.584Z,74.15
2019-05-10T10:02:16.520Z,73.94
2019-05-10T10:03:13.999Z,73.94
2019-05-10T10:04:14.042Z,73.91
2019-05-10T10:05:14.035Z,73.54
2019-05-10T10:06:13.978Z,72.17
2019-05-10T10:07:13.965Z,72.78
2019-05-10T10:08:13.947Z,72.78
2019-05-10T10:09:13.934Z,73.74
2019-05-10T10:10:20.751Z,74.45
2019-05-10T10:11:18.071Z,74.25
2019-05-10T10:12:13.903Z,73.74
2019-05-10T10:13:14.212Z,73.94
2019-05-10T10:14:13.885Z,74.45
2019-05-10T10:15:25.301Z,74.55
2019-05-10T10:16:15.067Z,74.45
2019-05-10T10:17:17.348Z,74.28
2019-05-10T10:18:21.198Z,74.79
2019-05-10T10:19:17.283Z,74.90
2019-05-10T10:21:30.666Z,75.20
2019-05-10T10:22:24.571Z,75.30
2019-05-10T10:23:24.601Z,75.20
2019-05-10T10:24:24.554Z,74.69
2019-05-10T10:25:26.904Z,75.06
2019-05-10T10:26:26.711Z,74.69
2019-05-10T10:27:26.002Z,74.90
2019-05-10T10:28:24.519Z,74.99
2019-05-10T10:29:23.548Z,74.79
2019-05-10T10:30:23.495Z,75.51
2019-05-10T10:31:29.671Z,75.10
2019-05-10T10:32:30.062Z,76.28
2019-05-10T10:33:25.664Z,75.47
2019-05-10T10:34:23.463Z,74.52
2019-05-10T10:35:27.709Z,74.62
2019-05-10T10:36:27.208Z,75.06
2019-05-10T10:37:28.296Z,74.55
2019-05-10T10:38:28.623Z,74.55
2019-05-10T10:39:24.468Z,74.41
2019-05-10T10:40:23.386Z,74.86
2019-05-10T10:41:31.345Z,74.96
2019-05-10T10:42:24.407Z,75.57
2019-05-10T10:43:23.356Z,75.27
2019-05-10T10:44:23.364Z,76.39
2019-05-10T10:45:23.330Z,75.57
2019-05-10T10:46:23.334Z,75.02
2019-05-10T10:47:28.322Z,75.33
2019-05-10T10:48:24.329Z,75.16
2019-05-10T10:49:28.029Z,74.96
2019-05-10T10:50:24.311Z,76.08
2019-05-10T10:51:26.670Z,76.28
2019-05-10T10:53:33.067Z,75.54
2019-05-10T10:54:36.643Z,74.93
2019-05-10T10:55:37.070Z,74.82
2019-05-10T10:56:33.989Z,74.82
2019-05-10T10:57:32.984Z,74.72
2019-05-10T10:58:32.978Z,74.52
2019-05-10T10:59:32.991Z,75.23
2019-05-10T11:00:32.983Z,74.52
2019-05-10T11:01:46.133Z,74.32
2019-05-10T11:02:34.320Z,74.82
2019-05-10T11:03:32.922Z,75.43
2019-05-10T11:04:32.964Z,75.09
2019-05-10T11:05:32.910Z,74.52
2019-05-10T11:06:32.892Z,74.52
2019-05-10T11:07:35.316Z,74.79
2019-05-10T11:08:33.333Z,75.02
2019-05-10T11:09:32.941Z,74.62
2019-05-10T11:10:32.880Z,74.69
2019-05-10T11:11:38.629Z,74.69
2019-05-10T11:12:33.825Z,75.33
2019-05-10T11:13:44.933Z,74.79
2019-05-10T11:14:40.095Z,74.48
2019-05-10T11:15:36.315Z,75.30
2019-05-10T11:16:32.803Z,74.99
2019-05-10T11:17:32.773Z,74.99
2019-05-10T11:18:32.758Z,75.50
2019-05-10T11:19:32.750Z,75.30
2019-05-10T11:20:32.737Z,75.70
2019-05-10T11:21:33.442Z,76.11
2019-05-10T11:22:32.754Z,75.20
2019-05-10T11:23:37.618Z,75.09
2019-05-10T11:25:50.424Z,76.28
2019-05-10T11:26:44.966Z,76.07
2019-05-10T11:27:42.449Z,76.07
2019-05-10T11:28:44.026Z,75.73
2019-05-10T11:29:42.416Z,75.09
2019-05-10T11:30:42.409Z,73.94
2019-05-10T11:31:42.401Z,73.50
2019-05-10T11:32:42.460Z,72.58
2019-05-10T11:33:47.230Z,72.69
2019-05-10T11:34:43.362Z,72.69
2019-05-10T11:35:42.382Z,74.21
2019-05-10T11:36:46.120Z,74.14
2019-05-10T11:37:45.817Z,74.28
2019-05-10T11:38:46.926Z,74.38
2019-05-10T11:39:46.861Z,74.48
2019-05-10T11:40:42.408Z,74.99
2019-05-10T11:41:42.292Z,75.12
2019-05-10T11:42:47.074Z,75.94
2019-05-10T11:43:43.274Z,75.94
2019-05-10T11:44:50.198Z,76.04
2019-05-10T11:45:44.167Z,74.92
2019-05-10T11:46:42.302Z,74.38
2019-05-10T11:47:42.226Z,74.14
2019-05-10T11:48:42.491Z,74.14
2019-05-10T11:49:42.205Z,73.90
2019-05-10T11:50:42.194Z,73.70
2019-05-10T11:51:42.177Z,73.39
2019-05-10T11:52:42.199Z,72.78
2019-05-10T11:53:42.162Z,73.09
2019-05-10T11:54:42.158Z,74.21
2019-05-10T11:55:43.651Z,74.04
2019-05-10T11:56:51.946Z,74.04
2019-05-10T11:57:44.152Z,74.01
2019-05-10T11:58:45.982Z,74.41
2019-05-10T11:59:43.152Z,73.46
2019-05-10T12:00:42.078Z,73.36
2019-05-10T12:01:42.071Z,72.55
2019-05-10T12:03:01.736Z,72.31
2019-05-10T12:03:43.082Z,71.60
2019-05-10T12:04:43.391Z,72.01
2019-05-10T12:05:42.732Z,72.31
2019-05-10T12:06:49.871Z,72.61
2019-05-10T12:08:42.996Z,72.52
2019-05-10T12:09:42.707Z,72.75
2019-05-10T12:10:52.420Z,72.65
2019-05-10T12:11:51.782Z,72.75
2019-05-10T12:12:59.756Z,72.11
2019-05-10T12:13:42.976Z,72.52
2019-05-10T12:14:46.173Z,71.80
2019-05-10T12:15:42.935Z,72.92
2019-05-10T12:16:42.271Z,72.41
2019-05-10T12:17:43.847Z,71.94
2019-05-10T12:19:01.193Z,73.36
2019-05-10T12:19:48.490Z,73.46
2019-05-10T12:20:55.825Z,74.38
2019-05-10T12:21:42.903Z,74.31
2019-05-10T12:22:47.107Z,74.01
2019-05-10T12:24:53.858Z,74.51
2019-05-10T12:25:59.303Z,74.92
2019-05-10T12:26:18.428Z,71.70
2019-05-10T12:26:33.846Z,74.82
2019-05-10T12:27:48.757Z,75.32
2019-05-10T12:29:59.371Z,75.97
2019-05-10T12:30:52.533Z,75.46
2019-05-10T12:31:53.366Z,76.03
2019-05-10T12:32:55.979Z,75.26
2019-05-10T12:33:52.499Z,75.76
2019-05-10T12:34:56.324Z,76.07
2019-05-10T12:35:52.501Z,75.02
2019-05-10T12:36:52.056Z,74.62
2019-05-10T12:37:54.101Z,74.31
2019-05-10T12:38:51.461Z,74.51
2019-05-10T12:39:53.127Z,74.41
2019-05-10T12:40:51.528Z,74.31
2019-05-10T12:41:53.014Z,74.10
2019-05-10T12:42:51.409Z,74.27
2019-05-10T12:43:57.470Z,73.87
2019-05-10T12:44:55.413Z,74.31
2019-05-10T12:45:51.885Z,74.51
2019-05-10T12:46:54.249Z,74.68
2019-05-10T12:47:51.993Z,75.02
2019-05-10T12:48:51.730Z,76.03
2019-05-10T12:49:53.999Z,76.17
2019-05-10T12:50:57.877Z,75.87
2019-05-10T12:51:52.310Z,76.03
2019-05-10T12:53:03.320Z,76.03
2019-05-10T12:53:52.401Z,75.73
2019-05-10T12:54:51.285Z,75.93
2019-05-10T12:55:51.323Z,75.32
2019-05-10T12:56:51.263Z,74.68
2019-05-10T12:57:51.245Z,74.38
2019-05-10T12:58:57.699Z,75.43
2019-05-10T12:59:52.247Z,75.83